sensor_id;sensor_type;location;lat;lon;timestamp;pressure;altitude;pressure_sealevel;temperature
76583;BMP280;65462;52.148;7.940;2023-08-24T00:01:51;101022.44;;;19.40
76583;BMP280;65462;52.148;7.940;2023-08-24T00:04:17;101020.94;;;19.40
76583;BMP280;65462;52.148;7.940;2023-08-24T00:06:42;101020.16;;;19.39
76583;BMP280;65462;52.148;7.940;2023-08-24T00:09:07;101017.50;;;19.39
76583;BMP280;65462;52.148;7.940;2023-08-24T00:11:33;101008.66;;;19.35
76583;BMP280;65462;52.148;7.940;2023-08-24T00:13:58;101007.47;;;19.32
76583;BMP280;65462;52.148;7.940;2023-08-24T00:16:24;101009.00;;;19.30
76583;BMP280;65462;52.148;7.940;2023-08-24T00:18:49;101004.75;;;19.29
76583;BMP280;65462;52.148;7.940;2023-08-24T00:21:15;101010.88;;;19.26
76583;BMP280;65462;52.148;7.940;2023-08-24T00:23:42;101007.41;;;19.25
76583;BMP280;65462;52.148;7.940;2023-08-24T00:26:08;101001.66;;;19.23
76583;BMP280;65462;52.148;7.940;2023-08-24T00:28:33;101003.94;;;19.21
76583;BMP280;65462;52.148;7.940;2023-08-24T00:30:58;100991.69;;;19.20
76583;BMP280;65462;52.148;7.940;2023-08-24T00:33:24;101001.63;;;19.20
76583;BMP280;65462;52.148;7.940;2023-08-24T00:35:50;100993.19;;;19.18
76583;BMP280;65462;52.148;7.940;2023-08-24T00:38:15;100989.31;;;19.15
76583;BMP280;65462;52.148;7.940;2023-08-24T00:40:42;100990.47;;;19.14
76583;BMP280;65462;52.148;7.940;2023-08-24T00:43:07;100991.59;;;19.13
76583;BMP280;65462;52.148;7.940;2023-08-24T00:45:32;100990.09;;;19.12
76583;BMP280;65462;52.148;7.940;2023-08-24T00:47:58;100988.56;;;19.11
76583;BMP280;65462;52.148;7.940;2023-08-24T00:50:24;100982.38;;;19.07
76583;BMP280;65462;52.148;7.940;2023-08-24T00:52:49;100993.09;;;19.07
76583;BMP280;65462;52.148;7.940;2023-08-24T00:55:15;100993.09;;;19.07
76583;BMP280;65462;52.148;7.940;2023-08-24T00:57:41;100993.84;;;19.04
76583;BMP280;65462;52.148;7.940;2023-08-24T01:00:08;100996.50;;;19.04
76583;BMP280;65462;52.148;7.940;2023-08-24T01:02:35;100996.47;;;19.01
76583;BMP280;65462;52.148;7.940;2023-08-24T01:05:00;101000.31;;;19.00
76583;BMP280;65462;52.148;7.940;2023-08-24T01:07:26;101001.81;;;18.97
76583;BMP280;65462;52.148;7.940;2023-08-24T01:09:51;101005.25;;;18.94
76583;BMP280;65462;52.148;7.940;2023-08-24T01:12:45;100992.97;;;18.93
76583;BMP280;65462;52.148;7.940;2023-08-24T01:15:36;100997.53;;;18.93
76583;BMP280;65462;52.148;7.940;2023-08-24T01:18:05;100997.53;;;18.93
76583;BMP280;65462;52.148;7.940;2023-08-24T01:20:31;100987.22;;;18.91
76583;BMP280;65462;52.148;7.940;2023-08-24T01:26:16;100982.19;;;18.86
76583;BMP280;65462;52.148;7.940;2023-08-24T01:28:43;100981.78;;;18.84
76583;BMP280;65462;52.148;7.940;2023-08-24T01:31:09;100975.66;;;18.84
76583;BMP280;65462;52.148;7.940;2023-08-24T01:33:34;100972.19;;;18.83
76583;BMP280;65462;52.148;7.940;2023-08-24T01:36:00;100963.38;;;18.83
76583;BMP280;65462;52.148;7.940;2023-08-24T01:38:25;100961.06;;;18.78
76583;BMP280;65462;52.148;7.940;2023-08-24T01:43:50;100950.72;;;18.76
76583;BMP280;65462;52.148;7.940;2023-08-24T01:46:19;100952.22;;;18.74
76583;BMP280;65462;52.148;7.940;2023-08-24T01:48:45;100950.72;;;18.73
76583;BMP280;65462;52.148;7.940;2023-08-24T01:51:12;100959.09;;;18.71
76583;BMP280;65462;52.148;7.940;2023-08-24T01:53:39;100954.47;;;18.68
76583;BMP280;65462;52.148;7.940;2023-08-24T01:56:11;100951.41;;;18.66
76583;BMP280;65462;52.148;7.940;2023-08-24T01:58:37;100952.16;;;18.63
76583;BMP280;65462;52.148;7.940;2023-08-24T02:01:04;100946.78;;;18.63
76583;BMP280;65462;52.148;7.940;2023-08-24T02:03:30;100946.38;;;18.61
76583;BMP280;65462;52.148;7.940;2023-08-24T02:05:56;100939.06;;;18.58
76583;BMP280;65462;52.148;7.940;2023-08-24T02:08:21;100944.03;;;18.56
76583;BMP280;65462;52.148;7.940;2023-08-24T02:10:46;100943.22;;;18.52
76583;BMP280;65462;52.148;7.940;2023-08-24T02:13:11;100929.06;;;18.52
76583;BMP280;65462;52.148;7.940;2023-08-24T02:15:37;100940.88;;;18.51
76583;BMP280;65462;52.148;7.940;2023-08-24T02:18:04;100937.44;;;18.47
76583;BMP280;65462;52.148;7.940;2023-08-24T02:20:29;100922.84;;;18.44
76583;BMP280;65462;52.148;7.940;2023-08-24T02:22:55;100921.34;;;18.43
76583;BMP280;65462;52.148;7.940;2023-08-24T02:25:20;100930.09;;;18.40
76583;BMP280;65462;52.148;7.940;2023-08-24T02:27:45;100929.66;;;18.38
76583;BMP280;65462;52.148;7.940;2023-08-24T02:30:11;100932.72;;;18.36
76583;BMP280;65462;52.148;7.940;2023-08-24T02:32:36;100917.41;;;18.33
76583;BMP280;65462;52.148;7.940;2023-08-24T02:35:02;100924.28;;;18.31
76583;BMP280;65462;52.148;7.940;2023-08-24T02:37:27;100912.84;;;18.34
76583;BMP280;65462;52.148;7.940;2023-08-24T02:39:52;100897.53;;;18.31
76583;BMP280;65462;52.148;7.940;2023-08-24T02:42:18;100909.38;;;18.33
76583;BMP280;65462;52.148;7.940;2023-08-24T02:44:43;100904.78;;;18.30
76583;BMP280;65462;52.148;7.940;2023-08-24T02:47:08;100904.38;;;18.32
76583;BMP280;65462;52.148;7.940;2023-08-24T02:49:33;100900.97;;;18.35
76583;BMP280;65462;52.148;7.940;2023-08-24T02:51:58;100909.41;;;18.37
76583;BMP280;65462;52.148;7.940;2023-08-24T02:54:23;100904.47;;;18.39
76583;BMP280;65462;52.148;7.940;2023-08-24T02:56:49;100913.66;;;18.41
76583;BMP280;65462;52.148;7.940;2023-08-24T02:59:14;100917.88;;;18.42
76583;BMP280;65462;52.148;7.940;2023-08-24T03:01:39;100918.97;;;18.38
76583;BMP280;65462;52.148;7.940;2023-08-24T03:04:06;100915.53;;;18.41
76583;BMP280;65462;52.148;7.940;2023-08-24T03:06:31;100914.41;;;18.42
76583;BMP280;65462;52.148;7.940;2023-08-24T03:08:56;100908.72;;;18.44
76583;BMP280;65462;52.148;7.940;2023-08-24T03:11:22;100912.94;;;18.45
76583;BMP280;65462;52.148;7.940;2023-08-24T03:13:47;100918.69;;;18.47
76583;BMP280;65462;52.148;7.940;2023-08-24T03:16:12;100919.78;;;18.42
76583;BMP280;65462;52.148;7.940;2023-08-24T03:18:37;100919.78;;;18.42
76583;BMP280;65462;52.148;7.940;2023-08-24T03:21:02;100915.91;;;18.36
76583;BMP280;65462;52.148;7.940;2023-08-24T03:23:28;100927.44;;;18.40
76583;BMP280;65462;52.148;7.940;2023-08-24T03:25:53;100925.53;;;18.41
76583;BMP280;65462;52.148;7.940;2023-08-24T03:28:18;100934.66;;;18.36
76583;BMP280;65462;52.148;7.940;2023-08-24T03:30:47;100928.16;;;18.37
76583;BMP280;65462;52.148;7.940;2023-08-24T03:33:13;100925.03;;;18.31
76583;BMP280;65462;52.148;7.940;2023-08-24T03:35:38;100919.31;;;18.33
76583;BMP280;65462;52.148;7.940;2023-08-24T03:38:03;100925.75;;;18.28
76583;BMP280;65462;52.148;7.940;2023-08-24T03:40:29;100921.94;;;18.29
76583;BMP280;65462;52.148;7.940;2023-08-24T03:42:54;100920.81;;;18.30
76583;BMP280;65462;52.148;7.940;2023-08-24T03:45:19;100923.47;;;18.27
76583;BMP280;65462;52.148;7.940;2023-08-24T03:47:45;100921.50;;;18.24
76583;BMP280;65462;52.148;7.940;2023-08-24T03:50:10;100921.91;;;18.26
76583;BMP280;65462;52.148;7.940;2023-08-24T03:52:35;100923.47;;;18.27
76583;BMP280;65462;52.148;7.940;2023-08-24T03:55:00;100931.50;;;18.27
76583;BMP280;65462;52.148;7.940;2023-08-24T03:57:25;100929.88;;;18.22
76583;BMP280;65462;52.148;7.940;2023-08-24T03:59:51;100927.94;;;18.19
76583;BMP280;65462;52.148;7.940;2023-08-24T04:02:16;100917.63;;;18.18
76583;BMP280;65462;52.148;7.940;2023-08-24T04:04:41;100916.13;;;18.20
76583;BMP280;65462;52.148;7.940;2023-08-24T04:07:06;100914.22;;;18.21
76583;BMP280;65462;52.148;7.940;2023-08-24T04:09:31;100918.06;;;18.23
76583;BMP280;65462;52.148;7.940;2023-08-24T04:11:57;100918.47;;;18.25
76583;BMP280;65462;52.148;7.940;2023-08-24T04:14:22;100921.47;;;18.20
76583;BMP280;65462;52.148;7.940;2023-08-24T04:16:47;100933.66;;;18.18
76583;BMP280;65462;52.148;7.940;2023-08-24T04:19:12;100938.66;;;18.19
76583;BMP280;65462;52.148;7.940;2023-08-24T04:21:38;100937.16;;;18.22
76583;BMP280;65462;52.148;7.940;2023-08-24T04:24:03;100937.09;;;18.18
76583;BMP280;65462;52.148;7.940;2023-08-24T04:26:28;100945.94;;;18.22
76583;BMP280;65462;52.148;7.940;2023-08-24T04:28:53;100954.72;;;18.23
76583;BMP280;65462;52.148;7.940;2023-08-24T04:31:19;100955.47;;;18.20
76583;BMP280;65462;52.148;7.940;2023-08-24T04:33:44;100956.63;;;18.22
76583;BMP280;65462;52.148;7.940;2023-08-24T04:36:09;100952.47;;;18.25
76583;BMP280;65462;52.148;7.940;2023-08-24T04:38:34;100955.16;;;18.25
76583;BMP280;65462;52.148;7.940;2023-08-24T04:41:00;100953.22;;;18.22
76583;BMP280;65462;52.148;7.940;2023-08-24T04:43:25;100946.00;;;18.26
76583;BMP280;65462;52.148;7.940;2023-08-24T04:45:51;100942.53;;;18.25
76583;BMP280;65462;52.148;7.940;2023-08-24T04:48:17;100941.75;;;18.21
76583;BMP280;65462;52.148;7.940;2023-08-24T04:50:43;100933.75;;;18.25
76583;BMP280;65462;52.148;7.940;2023-08-24T04:53:09;100929.16;;;18.25
76583;BMP280;65462;52.148;7.940;2023-08-24T04:55:34;100925.38;;;18.26
76583;BMP280;65462;52.148;7.940;2023-08-24T04:57:59;100926.16;;;18.27
76583;BMP280;65462;52.148;7.940;2023-08-24T05:00:24;100920.41;;;18.28
76583;BMP280;65462;52.148;7.940;2023-08-24T05:02:50;100898.22;;;18.28
76583;BMP280;65462;52.148;7.940;2023-08-24T05:05:15;100890.94;;;18.28
76583;BMP280;65462;52.148;7.940;2023-08-24T05:07:41;100891.72;;;18.29
76583;BMP280;65462;52.148;7.940;2023-08-24T05:10:07;100884.81;;;18.24
76583;BMP280;65462;52.148;7.940;2023-08-24T05:12:32;100880.22;;;18.25
76583;BMP280;65462;52.148;7.940;2023-08-24T05:15:00;100872.94;;;18.22
76583;BMP280;65462;52.148;7.940;2023-08-24T05:17:25;100871.44;;;18.24
76583;BMP280;65462;52.148;7.940;2023-08-24T05:19:55;100863.03;;;18.26
76583;BMP280;65462;52.148;7.940;2023-08-24T05:22:20;100864.59;;;18.27
76583;BMP280;65462;52.148;7.940;2023-08-24T05:24:46;100872.63;;;18.27
76583;BMP280;65462;52.148;7.940;2023-08-24T05:27:11;100869.16;;;18.26
76583;BMP280;65462;52.148;7.940;2023-08-24T05:29:36;100863.81;;;18.26
76583;BMP280;65462;52.148;7.940;2023-08-24T05:32:01;100854.59;;;18.24
76583;BMP280;65462;52.148;7.940;2023-08-24T05:34:27;100856.13;;;18.25
76583;BMP280;65462;52.148;7.940;2023-08-24T05:36:53;100864.16;;;18.25
76583;BMP280;65462;52.148;7.940;2023-08-24T05:39:18;100864.59;;;18.27
76583;BMP280;65462;52.148;7.940;2023-08-24T05:41:43;100863.81;;;18.26
76583;BMP280;65462;52.148;7.940;2023-08-24T05:44:08;100866.88;;;18.28
76583;BMP280;65462;52.148;7.940;2023-08-24T05:46:34;100879.53;;;18.31
76583;BMP280;65462;52.148;7.940;2023-08-24T05:48:59;100882.59;;;18.30
76583;BMP280;65462;52.148;7.940;2023-08-24T05:51:24;100877.22;;;18.30
76583;BMP280;65462;52.148;7.940;2023-08-24T05:53:50;100883.38;;;18.30
76583;BMP280;65462;52.148;7.940;2023-08-24T05:56:20;100882.97;;;18.32
76583;BMP280;65462;52.148;7.940;2023-08-24T05:58:45;100874.56;;;18.30
76583;BMP280;65462;52.148;7.940;2023-08-24T06:01:10;100878.03;;;18.34
76583;BMP280;65462;52.148;7.940;2023-08-24T06:03:35;100881.13;;;18.36
76583;BMP280;65462;52.148;7.940;2023-08-24T06:06:02;100886.84;;;18.38
76583;BMP280;65462;52.148;7.940;2023-08-24T06:08:28;100886.09;;;18.41
76583;BMP280;65462;52.148;7.940;2023-08-24T06:10:53;100880.81;;;18.45
76583;BMP280;65462;52.148;7.940;2023-08-24T06:13:18;100873.25;;;18.50
76583;BMP280;65462;52.148;7.940;2023-08-24T06:15:44;100877.03;;;18.49
76583;BMP280;65462;52.148;7.940;2023-08-24T06:18:09;100868.66;;;18.54
76583;BMP280;65462;52.148;7.940;2023-08-24T06:20:34;100862.91;;;18.52
76583;BMP280;65462;52.148;7.940;2023-08-24T06:22:59;100861.06;;;18.60
76583;BMP280;65462;52.148;7.940;2023-08-24T06:25:25;100856.13;;;18.65
76583;BMP280;65462;52.148;7.940;2023-08-24T06:27:50;100852.34;;;18.70
76583;BMP280;65462;52.148;7.940;2023-08-24T06:30:15;100850.44;;;18.74
76583;BMP280;65462;52.148;7.940;2023-08-24T06:32:40;100855.44;;;18.75
76583;BMP280;65462;52.148;7.940;2023-08-24T06:35:05;100847.03;;;18.77
76583;BMP280;65462;52.148;7.940;2023-08-24T06:37:31;100845.53;;;18.79
76583;BMP280;65462;52.148;7.940;2023-08-24T06:39:56;100845.16;;;18.81
76583;BMP280;65462;52.148;7.940;2023-08-24T06:42:21;100837.91;;;18.81
76583;BMP280;65462;52.148;7.940;2023-08-24T06:44:47;100836.72;;;18.79
76583;BMP280;65462;52.148;7.940;2023-08-24T06:47:15;100830.25;;;18.83
76583;BMP280;65462;52.148;7.940;2023-08-24T06:49:40;100827.59;;;18.87
76583;BMP280;65462;52.148;7.940;2023-08-24T06:52:05;100814.97;;;18.87
76583;BMP280;65462;52.148;7.940;2023-08-24T06:54:30;100815.38;;;18.93
76583;BMP280;65462;52.148;7.940;2023-08-24T06:56:55;100817.34;;;18.99
76583;BMP280;65462;52.148;7.940;2023-08-24T06:59:20;100805.53;;;19.07
76583;BMP280;65462;52.148;7.940;2023-08-24T07:01:46;100804.78;;;19.10
76583;BMP280;65462;52.148;7.940;2023-08-24T07:04:12;100807.09;;;19.19
76583;BMP280;65462;52.148;7.940;2023-08-24T07:06:37;100796.41;;;19.22
76583;BMP280;65462;52.148;7.940;2023-08-24T07:09:02;100803.38;;;19.34
76583;BMP280;65462;52.148;7.940;2023-08-24T07:11:31;100803.00;;;19.39
76583;BMP280;65462;52.148;7.940;2023-08-24T07:13:56;100800.75;;;19.48
76583;BMP280;65462;52.148;7.940;2023-08-24T07:16:21;100797.31;;;19.58
76583;BMP280;65462;52.148;7.940;2023-08-24T07:18:47;100795.03;;;19.64
76583;BMP280;65462;52.148;7.940;2023-08-24T07:21:12;100790.47;;;19.75
76583;BMP280;65462;52.148;7.940;2023-08-24T07:23:39;100796.63;;;19.86
76583;BMP280;65462;52.148;7.940;2023-08-24T07:26:04;100794.34;;;19.95
76583;BMP280;65462;52.148;7.940;2023-08-24T07:28:30;100789.75;;;20.06
76583;BMP280;65462;52.148;7.940;2023-08-24T07:30:55;100785.16;;;20.17
76583;BMP280;65462;52.148;7.940;2023-08-24T07:33:21;100776.34;;;20.23
76583;BMP280;65462;52.148;7.940;2023-08-24T07:35:46;100770.22;;;20.33
76583;BMP280;65462;52.148;7.940;2023-08-24T07:38:11;100769.44;;;20.40
76583;BMP280;65462;52.148;7.940;2023-08-24T07:40:37;100766.69;;;20.51
76583;BMP280;65462;52.148;7.940;2023-08-24T07:43:02;100780.53;;;20.56
76583;BMP280;65462;52.148;7.940;2023-08-24T07:45:27;100780.50;;;20.67
76583;BMP280;65462;52.148;7.940;2023-08-24T07:47:53;100780.84;;;20.76
76583;BMP280;65462;52.148;7.940;2023-08-24T07:50:18;100786.22;;;20.86
76583;BMP280;65462;52.148;7.940;2023-08-24T07:52:43;100791.97;;;20.95
76583;BMP280;65462;52.148;7.940;2023-08-24T07:55:09;100788.09;;;21.00
76583;BMP280;65462;52.148;7.940;2023-08-24T07:57:35;100783.81;;;21.13
76583;BMP280;65462;52.148;7.940;2023-08-24T08:00:00;100784.94;;;21.22
76583;BMP280;65462;52.148;7.940;2023-08-24T08:02:25;100786.84;;;21.25
76583;BMP280;65462;52.148;7.940;2023-08-24T08:04:51;100791.00;;;21.33
76583;BMP280;65462;52.148;7.940;2023-08-24T08:07:16;100786.78;;;21.36
76583;BMP280;65462;52.148;7.940;2023-08-24T08:09:42;100797.13;;;21.41
76583;BMP280;65462;52.148;7.940;2023-08-24T08:12:07;100790.19;;;21.51
76583;BMP280;65462;52.148;7.940;2023-08-24T08:14:32;100787.06;;;21.56
76583;BMP280;65462;52.148;7.940;2023-08-24T08:16:58;100794.69;;;21.64
76583;BMP280;65462;52.148;7.940;2023-08-24T08:19:23;100799.28;;;21.71
76583;BMP280;65462;52.148;7.940;2023-08-24T08:21:50;100795.00;;;21.77
76583;BMP280;65462;52.148;7.940;2023-08-24T08:24:15;100784.56;;;21.86
76583;BMP280;65462;52.148;7.940;2023-08-24T08:26:40;100781.38;;;21.98
76583;BMP280;65462;52.148;7.940;2023-08-24T08:29:05;100779.78;;;22.07
76583;BMP280;65462;52.148;7.940;2023-08-24T08:31:31;100801.19;;;22.25
76583;BMP280;65462;52.148;7.940;2023-08-24T08:33:56;100804.91;;;22.38
76583;BMP280;65462;52.148;7.940;2023-08-24T08:36:21;100797.09;;;22.50
76583;BMP280;65462;52.148;7.940;2023-08-24T08:38:46;100801.56;;;22.64
76583;BMP280;65462;52.148;7.940;2023-08-24T08:41:11;100804.13;;;22.75
76583;BMP280;65462;52.148;7.940;2023-08-24T08:43:37;100785.91;;;22.86
76583;BMP280;65462;52.148;7.940;2023-08-24T08:46:03;100784.63;;;22.97
76583;BMP280;65462;52.148;7.940;2023-08-24T08:48:29;100772.09;;;23.10
76583;BMP280;65462;52.148;7.940;2023-08-24T08:50:57;100763.47;;;23.22
76583;BMP280;65462;52.148;7.940;2023-08-24T08:53:22;100764.06;;;23.33
76583;BMP280;65462;52.148;7.940;2023-08-24T08:55:49;100754.31;;;23.43
76583;BMP280;65462;52.148;7.940;2023-08-24T08:58:16;100756.44;;;23.55
76583;BMP280;65462;52.148;7.940;2023-08-24T09:00:41;100745.13;;;23.63
76583;BMP280;65462;52.148;7.940;2023-08-24T09:03:07;100748.81;;;23.73
76583;BMP280;65462;52.148;7.940;2023-08-24T09:05:33;100746.72;;;23.84
76583;BMP280;65462;52.148;7.940;2023-08-24T09:08:00;100741.50;;;23.97
76583;BMP280;65462;52.148;7.940;2023-08-24T09:10:27;100754.78;;;24.07
76583;BMP280;65462;52.148;7.940;2023-08-24T09:12:52;100757.31;;;24.18
76583;BMP280;65462;52.148;7.940;2023-08-24T09:15:24;100748.25;;;24.28
76583;BMP280;65462;52.148;7.940;2023-08-24T09:17:51;100747.28;;;24.38
76583;BMP280;65462;52.148;7.940;2023-08-24T09:20:16;100744.78;;;24.47
76583;BMP280;65462;52.148;7.940;2023-08-24T09:22:42;100744.22;;;24.55
76583;BMP280;65462;52.148;7.940;2023-08-24T09:25:09;100743.69;;;24.64
76583;BMP280;65462;52.148;7.940;2023-08-24T09:27:34;100743.94;;;24.69
76583;BMP280;65462;52.148;7.940;2023-08-24T09:30:00;100743.34;;;24.78
76583;BMP280;65462;52.148;7.940;2023-08-24T09:32:28;100733.22;;;24.82
76583;BMP280;65462;52.148;7.940;2023-08-24T09:34:54;100742.03;;;24.86
76583;BMP280;65462;52.148;7.940;2023-08-24T09:37:19;100738.84;;;24.91
76583;BMP280;65462;52.148;7.940;2023-08-24T09:39:45;100737.16;;;24.97
76583;BMP280;65462;52.148;7.940;2023-08-24T09:42:10;100736.22;;;25.03
76583;BMP280;65462;52.148;7.940;2023-08-24T09:44:36;100734.16;;;25.11
76583;BMP280;65462;52.148;7.940;2023-08-24T09:47:01;100730.06;;;25.19
76583;BMP280;65462;52.148;7.940;2023-08-24T09:49:27;100727.66;;;25.25
76583;BMP280;65462;52.148;7.940;2023-08-24T09:51:54;100721.31;;;25.31
76583;BMP280;65462;52.148;7.940;2023-08-24T09:54:20;100708.41;;;25.35
76583;BMP280;65462;52.148;7.940;2023-08-24T09:56:46;100700.13;;;25.42
76583;BMP280;65462;52.148;7.940;2023-08-24T09:59:14;100703.09;;;25.48
76583;BMP280;65462;52.148;7.940;2023-08-24T10:01:40;100699.09;;;25.52
76583;BMP280;65462;52.148;7.940;2023-08-24T10:04:06;100683.53;;;25.56
76583;BMP280;65462;52.148;7.940;2023-08-24T10:06:33;100676.84;;;25.61
76583;BMP280;65462;52.148;7.940;2023-08-24T10:09:01;100664.72;;;25.65
76583;BMP280;65462;52.148;7.940;2023-08-24T10:11:29;100658.34;;;25.72
76583;BMP280;65462;52.148;7.940;2023-08-24T10:16:40;100657.22;;;25.85
76583;BMP280;65462;52.148;7.940;2023-08-24T10:19:06;100653.97;;;25.90
76583;BMP280;65462;52.148;7.940;2023-08-24T10:21:32;100649.97;;;25.95
76583;BMP280;65462;52.148;7.940;2023-08-24T10:23:58;100646.22;;;26.05
76583;BMP280;65462;52.148;7.940;2023-08-24T10:26:24;100662.72;;;26.10
76583;BMP280;65462;52.148;7.940;2023-08-24T10:28:50;100670.28;;;26.15
76583;BMP280;65462;52.148;7.940;2023-08-24T10:31:16;100663.16;;;26.21
76583;BMP280;65462;52.148;7.940;2023-08-24T10:33:41;100654.94;;;26.25
76583;BMP280;65462;52.148;7.940;2023-08-24T10:36:09;100657.50;;;26.28
76583;BMP280;65462;52.148;7.940;2023-08-24T10:38:35;100649.72;;;26.30
76583;BMP280;65462;52.148;7.940;2023-08-24T10:41:03;100647.34;;;26.32
76583;BMP280;65462;52.148;7.940;2023-08-24T10:43:29;100644.97;;;26.34
76583;BMP280;65462;52.148;7.940;2023-08-24T10:45:55;100654.16;;;26.37
76583;BMP280;65462;52.148;7.940;2023-08-24T10:48:24;100659.16;;;26.38
76583;BMP280;65462;52.148;7.940;2023-08-24T10:51:15;100670.34;;;26.40
76583;BMP280;65462;52.148;7.940;2023-08-24T10:53:42;100662.19;;;26.40
76583;BMP280;65462;52.148;7.940;2023-08-24T10:56:12;100641.38;;;26.37
76583;BMP280;65462;52.148;7.940;2023-08-24T10:58:37;100637.81;;;26.40
76583;BMP280;65462;52.148;7.940;2023-08-24T11:01:02;100626.06;;;26.43
76583;BMP280;65462;52.148;7.940;2023-08-24T11:03:31;100612.09;;;26.45
76583;BMP280;65462;52.148;7.940;2023-08-24T11:05:57;100615.88;;;26.47
76583;BMP280;65462;52.148;7.940;2023-08-24T11:08:23;100607.31;;;26.49
76583;BMP280;65462;52.148;7.940;2023-08-24T11:11:17;100598.31;;;26.52
76583;BMP280;65462;52.148;7.940;2023-08-24T11:13:56;100579.53;;;26.58
76583;BMP280;65462;52.148;7.940;2023-08-24T11:16:44;100563.91;;;26.62
76583;BMP280;65462;52.148;7.940;2023-08-24T11:19:10;100551.84;;;26.63
76583;BMP280;65462;52.148;7.940;2023-08-24T11:21:35;100553.56;;;26.69
76583;BMP280;65462;52.148;7.940;2023-08-24T11:24:01;100547.59;;;26.74
76583;BMP280;65462;52.148;7.940;2023-08-24T11:26:27;100549.00;;;26.79
76583;BMP280;65462;52.148;7.940;2023-08-24T11:28:52;100541.50;;;26.83
76583;BMP280;65462;52.148;7.940;2023-08-24T11:31:18;100544.84;;;26.87
76583;BMP280;65462;52.148;7.940;2023-08-24T11:33:43;100532.66;;;26.91
76583;BMP280;65462;52.148;7.940;2023-08-24T11:36:09;100536.34;;;26.97
76583;BMP280;65462;52.148;7.940;2023-08-24T11:41:10;100532.94;;;27.06
76583;BMP280;65462;52.148;7.940;2023-08-24T11:43:35;100542.47;;;27.10
76583;BMP280;65462;52.148;7.940;2023-08-24T11:46:00;100543.88;;;27.15
76583;BMP280;65462;52.148;7.940;2023-08-24T11:48:25;100536.38;;;27.19
76583;BMP280;65462;52.148;7.940;2023-08-24T11:50:54;100536.97;;;27.23
76583;BMP280;65462;52.148;7.940;2023-08-24T11:53:19;100539.56;;;27.26
76583;BMP280;65462;52.148;7.940;2023-08-24T11:55:45;100523.16;;;27.30
76583;BMP280;65462;52.148;7.940;2023-08-24T12:00:35;100520.50;;;27.39
76583;BMP280;65462;52.148;7.940;2023-08-24T12:03:00;100520.38;;;27.42
76583;BMP280;65462;52.148;7.940;2023-08-24T12:05:26;100523.72;;;27.46
76583;BMP280;65462;52.148;7.940;2023-08-24T12:07:52;100524.78;;;27.49
76583;BMP280;65462;52.148;7.940;2023-08-24T12:10:17;100523.44;;;27.53
76583;BMP280;65462;52.148;7.940;2023-08-24T12:12:42;100518.34;;;27.55
76583;BMP280;65462;52.148;7.940;2023-08-24T12:15:08;100525.59;;;27.58
76583;BMP280;65462;52.148;7.940;2023-08-24T12:17:43;100523.19;;;27.60
76583;BMP280;65462;52.148;7.940;2023-08-24T12:20:16;100529.69;;;27.63
76583;BMP280;65462;52.148;7.940;2023-08-24T12:22:41;100515.66;;;27.64
76583;BMP280;65462;52.148;7.940;2023-08-24T12:25:07;100510.09;;;27.68
76583;BMP280;65462;52.148;7.940;2023-08-24T12:27:32;100513.44;;;27.72
76583;BMP280;65462;52.148;7.940;2023-08-24T12:30:01;100514.47;;;27.74
76583;BMP280;65462;52.148;7.940;2023-08-24T12:32:31;100517.38;;;27.80
76583;BMP280;65462;52.148;7.940;2023-08-24T12:35:06;100524.84;;;27.88
76583;BMP280;65462;52.148;7.940;2023-08-24T12:37:31;100530.13;;;27.92
76583;BMP280;65462;52.148;7.940;2023-08-24T12:39:56;100521.25;;;28.00
76583;BMP280;65462;52.148;7.940;2023-08-24T12:42:22;100514.78;;;28.07
76583;BMP280;65462;52.148;7.940;2023-08-24T12:44:47;100513.59;;;28.17
76583;BMP280;65462;52.148;7.940;2023-08-24T12:47:12;100501.06;;;28.29
76583;BMP280;65462;52.148;7.940;2023-08-24T12:49:37;100503.03;;;28.37
76583;BMP280;65462;52.148;7.940;2023-08-24T12:52:03;100502.16;;;28.49
76583;BMP280;65462;52.148;7.940;2023-08-24T12:54:28;100495.97;;;28.58
76583;BMP280;65462;52.148;7.940;2023-08-24T12:56:53;100499.00;;;28.69
76583;BMP280;65462;52.148;7.940;2023-08-24T12:59:18;100507.59;;;28.76
76583;BMP280;65462;52.148;7.940;2023-08-24T13:01:43;100506.09;;;28.84
76583;BMP280;65462;52.148;7.940;2023-08-24T13:04:09;100509.22;;;28.92
76583;BMP280;65462;52.148;7.940;2023-08-24T13:06:34;100492.16;;;29.00
76583;BMP280;65462;52.148;7.940;2023-08-24T13:08:59;100490.63;;;29.08
76583;BMP280;65462;52.148;7.940;2023-08-24T13:11:25;100480.59;;;29.14
76583;BMP280;65462;52.148;7.940;2023-08-24T13:13:50;100475.31;;;29.20
76583;BMP280;65462;52.148;7.940;2023-08-24T13:16:16;100466.97;;;29.23
76583;BMP280;65462;52.148;7.940;2023-08-24T13:18:41;100457.88;;;29.26
76583;BMP280;65462;52.148;7.940;2023-08-24T13:21:07;100458.91;;;29.29
76583;BMP280;65462;52.148;7.940;2023-08-24T13:23:32;100450.75;;;29.29
76583;BMP280;65462;52.148;7.940;2023-08-24T13:25:58;100448.78;;;29.29
76583;BMP280;65462;52.148;7.940;2023-08-24T13:28:24;100443.81;;;29.28
76583;BMP280;65462;52.148;7.940;2023-08-24T13:30:49;100440.63;;;29.29
76583;BMP280;65462;52.148;7.940;2023-08-24T13:33:14;100433.94;;;29.30
76583;BMP280;65462;52.148;7.940;2023-08-24T13:35:40;100433.47;;;29.32
76583;BMP280;65462;52.148;7.940;2023-08-24T13:38:05;100436.97;;;29.32
76583;BMP280;65462;52.148;7.940;2023-08-24T13:40:30;100431.81;;;29.34
76583;BMP280;65462;52.148;7.940;2023-08-24T13:42:55;100422.72;;;29.37
76583;BMP280;65462;52.148;7.940;2023-08-24T13:45:21;100424.22;;;29.38
76583;BMP280;65462;52.148;7.940;2023-08-24T13:47:46;100422.53;;;29.41
76583;BMP280;65462;52.148;7.940;2023-08-24T13:50:11;100418.63;;;29.42
76583;BMP280;65462;52.148;7.940;2023-08-24T13:52:36;100417.09;;;29.41
76583;BMP280;65462;52.148;7.940;2023-08-24T13:55:01;100411.22;;;29.42
76583;BMP280;65462;52.148;7.940;2023-08-24T13:57:28;100423.31;;;29.41
76583;BMP280;65462;52.148;7.940;2023-08-24T13:59:55;100429.22;;;29.40
76583;BMP280;65462;52.148;7.940;2023-08-24T14:02:20;100424.22;;;29.38
76583;BMP280;65462;52.148;7.940;2023-08-24T14:04:45;100415.28;;;29.38